sensor_id;sensor_type;location;lat;lon;timestamp;pressure;altitude;pressure_sealevel;temperature
65316;BMP280;51920;53.952;10.292;2023-06-26T00:00:23;101063.97;;;20.79
65316;BMP280;51920;53.952;10.292;2023-06-26T00:02:50;101055.25;;;20.80
65316;BMP280;51920;53.952;10.292;2023-06-26T00:05:16;101055.03;;;20.75
65316;BMP280;51920;53.952;10.292;2023-06-26T00:07:43;101039.13;;;20.57
65316;BMP280;51920;53.952;10.292;2023-06-26T00:10:10;101043.06;;;20.69
65316;BMP280;51920;53.952;10.292;2023-06-26T00:12:36;101046.00;;;20.74
65316;BMP280;51920;53.952;10.292;2023-06-26T00:15:03;101034.25;;;20.61
65316;BMP280;51920;53.952;10.292;2023-06-26T00:17:30;101052.06;;;20.69
65316;BMP280;51920;53.952;10.292;2023-06-26T00:19:56;101047.78;;;20.68
65316;BMP280;51920;53.952;10.292;2023-06-26T00:22:23;101040.53;;;20.61
65316;BMP280;51920;53.952;10.292;2023-06-26T00:24:50;101032.66;;;20.51
65316;BMP280;51920;53.952;10.292;2023-06-26T00:27:16;101036.28;;;20.48
65316;BMP280;51920;53.952;10.292;2023-06-26T00:29:43;101030.34;;;20.49
65316;BMP280;51920;53.952;10.292;2023-06-26T00:32:09;101028.16;;;20.44
65316;BMP280;51920;53.952;10.292;2023-06-26T00:34:36;101023.66;;;20.37
65316;BMP280;51920;53.952;10.292;2023-06-26T00:37:03;101029.16;;;20.37
65316;BMP280;51920;53.952;10.292;2023-06-26T00:39:30;101019.03;;;20.34
65316;BMP280;51920;53.952;10.292;2023-06-26T00:41:56;101022.25;;;20.33
65316;BMP280;51920;53.952;10.292;2023-06-26T00:44:23;101021.78;;;20.34
65316;BMP280;51920;53.952;10.292;2023-06-26T00:46:50;101033.25;;;20.33
65316;BMP280;51920;53.952;10.292;2023-06-26T00:49:16;101023.13;;;20.30
65316;BMP280;51920;53.952;10.292;2023-06-26T00:51:43;101015.09;;;20.23
65316;BMP280;51920;53.952;10.292;2023-06-26T00:54:10;100996.97;;;20.12
65316;BMP280;51920;53.952;10.292;2023-06-26T00:56:37;101014.00;;;20.20
65316;BMP280;51920;53.952;10.292;2023-06-26T00:59:04;101004.75;;;20.14
65316;BMP280;51920;53.952;10.292;2023-06-26T01:01:31;101006.75;;;20.13
65316;BMP280;51920;53.952;10.292;2023-06-26T01:03:58;101002.47;;;20.12
65316;BMP280;51920;53.952;10.292;2023-06-26T01:06:25;100996.63;;;20.10
65316;BMP280;51920;53.952;10.292;2023-06-26T01:08:54;100994.75;;;20.07
65316;BMP280;51920;53.952;10.292;2023-06-26T01:11:21;100992.31;;;20.09
65316;BMP280;51920;53.952;10.292;2023-06-26T01:13:48;100990.13;;;20.04
65316;BMP280;51920;53.952;10.292;2023-06-26T01:16:18;100987.38;;;20.04
65316;BMP280;51920;53.952;10.292;2023-06-26T01:18:46;100993.00;;;20.01
65316;BMP280;51920;53.952;10.292;2023-06-26T01:21:15;101000.28;;;19.94
65316;BMP280;51920;53.952;10.292;2023-06-26T01:26:20;100986.75;;;19.87
65316;BMP280;51920;53.952;10.292;2023-06-26T01:28:49;100989.59;;;19.84
65316;BMP280;51920;53.952;10.292;2023-06-26T01:31:17;100974.75;;;19.81
65316;BMP280;51920;53.952;10.292;2023-06-26T01:33:45;100978.31;;;19.82
65316;BMP280;51920;53.952;10.292;2023-06-26T01:36:12;100970.25;;;19.87
65316;BMP280;51920;53.952;10.292;2023-06-26T01:38:39;100969.91;;;19.98
65316;BMP280;51920;53.952;10.292;2023-06-26T01:41:06;100962.84;;;19.97
65316;BMP280;51920;53.952;10.292;2023-06-26T01:47:04;100962.31;;;20.02
65316;BMP280;51920;53.952;10.292;2023-06-26T01:52:19;100965.50;;;20.01
65316;BMP280;51920;53.952;10.292;2023-06-26T01:54:56;100960.00;;;20.01
65316;BMP280;51920;53.952;10.292;2023-06-26T01:57:26;100954.72;;;19.93
65316;BMP280;51920;53.952;10.292;2023-06-26T01:59:54;100953.66;;;19.91
65316;BMP280;51920;53.952;10.292;2023-06-26T02:02:25;100949.22;;;19.93
65316;BMP280;51920;53.952;10.292;2023-06-26T02:04:52;100949.22;;;19.93
65316;BMP280;51920;53.952;10.292;2023-06-26T02:07:18;100952.41;;;19.92
65316;BMP280;51920;53.952;10.292;2023-06-26T02:09:45;100933.94;;;19.80
65316;BMP280;51920;53.952;10.292;2023-06-26T02:12:12;100923.97;;;19.73
65316;BMP280;51920;53.952;10.292;2023-06-26T02:14:38;100928.81;;;19.82
65316;BMP280;51920;53.952;10.292;2023-06-26T02:17:05;100925.41;;;19.78
65316;BMP280;51920;53.952;10.292;2023-06-26T02:19:34;100930.56;;;19.76
65316;BMP280;51920;53.952;10.292;2023-06-26T02:22:01;100928.34;;;19.70
65316;BMP280;51920;53.952;10.292;2023-06-26T02:24:27;100920.13;;;19.58
65316;BMP280;51920;53.952;10.292;2023-06-26T02:26:57;100910.03;;;19.42
65316;BMP280;51920;53.952;10.292;2023-06-26T02:29:24;100919.91;;;19.52
65316;BMP280;51920;53.952;10.292;2023-06-26T02:31:50;100905.72;;;19.41
65316;BMP280;51920;53.952;10.292;2023-06-26T02:34:17;100921.84;;;19.39
65316;BMP280;51920;53.952;10.292;2023-06-26T02:36:44;100906.03;;;19.30
65316;BMP280;51920;53.952;10.292;2023-06-26T02:39:10;100920.03;;;19.36
65316;BMP280;51920;53.952;10.292;2023-06-26T02:41:38;100916.91;;;19.34
65316;BMP280;51920;53.952;10.292;2023-06-26T02:44:04;100915.84;;;19.31
65316;BMP280;51920;53.952;10.292;2023-06-26T02:46:32;100916.59;;;19.32
65316;BMP280;51920;53.952;10.292;2023-06-26T02:48:59;100916.06;;;19.37
65316;BMP280;51920;53.952;10.292;2023-06-26T02:51:26;100918.34;;;19.38
65316;BMP280;51920;53.952;10.292;2023-06-26T02:53:54;100912.75;;;19.42
65316;BMP280;51920;53.952;10.292;2023-06-26T02:56:21;100903.94;;;19.47
65316;BMP280;51920;53.952;10.292;2023-06-26T02:58:47;100895.81;;;19.56
65316;BMP280;51920;53.952;10.292;2023-06-26T03:01:14;100897.25;;;19.61
65316;BMP280;51920;53.952;10.292;2023-06-26T03:03:42;100881.44;;;19.52
65316;BMP280;51920;53.952;10.292;2023-06-26T03:06:14;100881.22;;;19.59
65316;BMP280;51920;53.952;10.292;2023-06-26T03:08:41;100894.59;;;19.70
65316;BMP280;51920;53.952;10.292;2023-06-26T03:11:08;100859.13;;;19.50
65316;BMP280;51920;53.952;10.292;2023-06-26T03:13:38;100886.81;;;19.68
65316;BMP280;51920;53.952;10.292;2023-06-26T03:16:05;100888.69;;;19.71
65316;BMP280;51920;53.952;10.292;2023-06-26T03:18:32;100891.00;;;19.73
65316;BMP280;51920;53.952;10.292;2023-06-26T03:20:59;100888.13;;;19.77
65316;BMP280;51920;53.952;10.292;2023-06-26T03:23:26;100884.47;;;19.80
65316;BMP280;51920;53.952;10.292;2023-06-26T03:25:53;100892.97;;;19.85
65316;BMP280;51920;53.952;10.292;2023-06-26T03:28:26;100882.72;;;19.86
65316;BMP280;51920;53.952;10.292;2023-06-26T03:30:52;100869.06;;;19.82
65316;BMP280;51920;53.952;10.292;2023-06-26T03:33:20;100876.34;;;19.89
65316;BMP280;51920;53.952;10.292;2023-06-26T03:35:47;100874.78;;;19.88
65316;BMP280;51920;53.952;10.292;2023-06-26T03:38:14;100878.97;;;19.92
65316;BMP280;51920;53.952;10.292;2023-06-26T03:40:42;100872.53;;;19.95
65316;BMP280;51920;53.952;10.292;2023-06-26T03:43:10;100863.63;;;20.04
65316;BMP280;51920;53.952;10.292;2023-06-26T03:45:44;100867.06;;;20.08
65316;BMP280;51920;53.952;10.292;2023-06-26T03:48:11;100860.50;;;20.15
65316;BMP280;51920;53.952;10.292;2023-06-26T03:50:38;100870.06;;;20.23
65316;BMP280;51920;53.952;10.292;2023-06-26T03:53:04;100871.47;;;20.28
65316;BMP280;51920;53.952;10.292;2023-06-26T03:55:31;100865.41;;;20.33
65316;BMP280;51920;53.952;10.292;2023-06-26T03:57:58;100858.09;;;20.39
65316;BMP280;51920;53.952;10.292;2023-06-26T04:00:25;100867.66;;;20.47
65316;BMP280;51920;53.952;10.292;2023-06-26T04:02:53;100853.78;;;20.51
65316;BMP280;51920;53.952;10.292;2023-06-26T04:05:19;100852.28;;;20.59
65316;BMP280;51920;53.952;10.292;2023-06-26T04:07:50;100859.69;;;20.71
65316;BMP280;51920;53.952;10.292;2023-06-26T04:10:16;100853.47;;;20.80
65316;BMP280;51920;53.952;10.292;2023-06-26T04:12:43;100855.06;;;20.90
65316;BMP280;51920;53.952;10.292;2023-06-26T04:15:10;100835.94;;;20.96
65316;BMP280;51920;53.952;10.292;2023-06-26T04:17:37;100830.66;;;21.10
65316;BMP280;51920;53.952;10.292;2023-06-26T04:20:04;100831.94;;;21.19
65316;BMP280;51920;53.952;10.292;2023-06-26T04:22:34;100829.19;;;21.37
65316;BMP280;51920;53.952;10.292;2023-06-26T04:25:03;100825.53;;;21.40
65316;BMP280;51920;53.952;10.292;2023-06-26T04:27:30;100822.94;;;21.46
65316;BMP280;51920;53.952;10.292;2023-06-26T04:30:00;100821.28;;;21.58
65316;BMP280;51920;53.952;10.292;2023-06-26T04:32:27;100808.41;;;21.54
65316;BMP280;51920;53.952;10.292;2023-06-26T04:34:54;100822.38;;;21.78
65316;BMP280;51920;53.952;10.292;2023-06-26T04:37:22;100823.16;;;21.88
65316;BMP280;51920;53.952;10.292;2023-06-26T04:39:49;100815.34;;;21.96
65316;BMP280;51920;53.952;10.292;2023-06-26T04:42:15;100811.47;;;22.02
65316;BMP280;51920;53.952;10.292;2023-06-26T04:44:42;100807.19;;;22.11
65316;BMP280;51920;53.952;10.292;2023-06-26T04:47:09;100810.22;;;22.22
65316;BMP280;51920;53.952;10.292;2023-06-26T04:49:35;100798.28;;;22.25
65316;BMP280;51920;53.952;10.292;2023-06-26T04:52:03;100800.72;;;22.32
65316;BMP280;51920;53.952;10.292;2023-06-26T04:54:30;100792.56;;;22.38
65316;BMP280;51920;53.952;10.292;2023-06-26T04:56:57;100807.69;;;22.61
65316;BMP280;51920;53.952;10.292;2023-06-26T04:59:23;100804.28;;;22.66
65316;BMP280;51920;53.952;10.292;2023-06-26T05:01:50;100797.31;;;22.80
65316;BMP280;51920;53.952;10.292;2023-06-26T05:04:17;100802.94;;;22.94
65316;BMP280;51920;53.952;10.292;2023-06-26T05:06:44;100793.72;;;22.98
65316;BMP280;51920;53.952;10.292;2023-06-26T05:09:10;100789.72;;;23.23
65316;BMP280;51920;53.952;10.292;2023-06-26T05:11:37;100786.75;;;23.35
65316;BMP280;51920;53.952;10.292;2023-06-26T05:14:04;100790.53;;;23.38
65316;BMP280;51920;53.952;10.292;2023-06-26T05:16:33;100787.06;;;23.52
65316;BMP280;51920;53.952;10.292;2023-06-26T05:19:01;100796.47;;;23.70
65316;BMP280;51920;53.952;10.292;2023-06-26T05:21:28;100779.66;;;23.73
65316;BMP280;51920;53.952;10.292;2023-06-26T05:23:56;100787.78;;;23.91
65316;BMP280;51920;53.952;10.292;2023-06-26T05:26:24;100787.06;;;24.06
65316;BMP280;51920;53.952;10.292;2023-06-26T05:31:23;100777.94;;;24.35
65316;BMP280;51920;53.952;10.292;2023-06-26T05:33:51;100773.84;;;24.45
65316;BMP280;51920;53.952;10.292;2023-06-26T05:36:22;100777.22;;;24.70
65316;BMP280;51920;53.952;10.292;2023-06-26T05:38:49;100775.13;;;24.85
65316;BMP280;51920;53.952;10.292;2023-06-26T05:41:17;100772.72;;;24.93
65316;BMP280;51920;53.952;10.292;2023-06-26T05:43:43;100777.97;;;25.11
65316;BMP280;51920;53.952;10.292;2023-06-26T05:46:10;100772.09;;;25.24
65316;BMP280;51920;53.952;10.292;2023-06-26T05:48:37;100763.91;;;25.35
65316;BMP280;51920;53.952;10.292;2023-06-26T05:51:04;100765.56;;;25.47
65316;BMP280;51920;53.952;10.292;2023-06-26T05:53:31;100759.16;;;25.62
65316;BMP280;51920;53.952;10.292;2023-06-26T05:55:58;100754.78;;;25.81
65316;BMP280;51920;53.952;10.292;2023-06-26T05:58:26;100763.44;;;25.94
65316;BMP280;51920;53.952;10.292;2023-06-26T06:00:54;100756.16;;;25.97
65316;BMP280;51920;53.952;10.292;2023-06-26T06:03:21;100756.78;;;26.12
65316;BMP280;51920;53.952;10.292;2023-06-26T06:05:48;100757.53;;;26.13
65316;BMP280;51920;53.952;10.292;2023-06-26T06:08:14;100758.38;;;26.30
65316;BMP280;51920;53.952;10.292;2023-06-26T06:10:41;100754.22;;;26.46
65316;BMP280;51920;53.952;10.292;2023-06-26T06:13:08;100754.06;;;26.66
65316;BMP280;51920;53.952;10.292;2023-06-26T06:15:35;100751.56;;;26.68
65316;BMP280;51920;53.952;10.292;2023-06-26T06:18:01;100742.56;;;26.96
65316;BMP280;51920;53.952;10.292;2023-06-26T06:20:28;100752.75;;;27.27
65316;BMP280;51920;53.952;10.292;2023-06-26T06:22:55;100754.06;;;27.54
65316;BMP280;51920;53.952;10.292;2023-06-26T06:25:21;100755.34;;;27.59
65316;BMP280;51920;53.952;10.292;2023-06-26T06:27:48;100751.78;;;27.69
65316;BMP280;51920;53.952;10.292;2023-06-26T06:30:15;100747.22;;;27.55
65316;BMP280;51920;53.952;10.292;2023-06-26T06:32:41;100744.19;;;27.75
65316;BMP280;51920;53.952;10.292;2023-06-26T06:35:08;100739.13;;;27.91
65316;BMP280;51920;53.952;10.292;2023-06-26T06:37:38;100739.13;;;27.91
65316;BMP280;51920;53.952;10.292;2023-06-26T06:40:05;100733.03;;;28.09
65316;BMP280;51920;53.952;10.292;2023-06-26T06:42:33;100733.50;;;28.19
65316;BMP280;51920;53.952;10.292;2023-06-26T06:45:02;100730.75;;;28.08
65316;BMP280;51920;53.952;10.292;2023-06-26T06:47:29;100724.16;;;28.11
65316;BMP280;51920;53.952;10.292;2023-06-26T06:49:56;100730.88;;;28.49
65316;BMP280;51920;53.952;10.292;2023-06-26T06:52:22;100717.16;;;28.62
65316;BMP280;51920;53.952;10.292;2023-06-26T06:54:57;100718.63;;;28.74
65316;BMP280;51920;53.952;10.292;2023-06-26T06:57:32;100709.03;;;29.06
65316;BMP280;51920;53.952;10.292;2023-06-26T07:00:04;100709.09;;;28.94
65316;BMP280;51920;53.952;10.292;2023-06-26T07:02:31;100701.66;;;29.08
65316;BMP280;51920;53.952;10.292;2023-06-26T07:04:57;100701.78;;;29.27
65316;BMP280;51920;53.952;10.292;2023-06-26T07:07:28;100697.13;;;29.65
65316;BMP280;51920;53.952;10.292;2023-06-26T07:09:55;100692.31;;;29.66
65316;BMP280;51920;53.952;10.292;2023-06-26T07:12:22;100697.72;;;29.58
65316;BMP280;51920;53.952;10.292;2023-06-26T07:14:48;100689.19;;;29.75
65316;BMP280;51920;53.952;10.292;2023-06-26T07:17:15;100690.28;;;29.91
65316;BMP280;51920;53.952;10.292;2023-06-26T07:19:42;100686.06;;;30.03
65316;BMP280;51920;53.952;10.292;2023-06-26T07:22:08;100681.72;;;30.26
65316;BMP280;51920;53.952;10.292;2023-06-26T07:24:35;100680.06;;;30.37
65316;BMP280;51920;53.952;10.292;2023-06-26T07:27:02;100677.06;;;30.35
65316;BMP280;51920;53.952;10.292;2023-06-26T07:29:29;100682.16;;;30.30
65316;BMP280;51920;53.952;10.292;2023-06-26T07:31:56;100679.91;;;30.48
65316;BMP280;51920;53.952;10.292;2023-06-26T07:34:22;100672.19;;;30.73
65316;BMP280;51920;53.952;10.292;2023-06-26T07:36:49;100666.47;;;30.65
65316;BMP280;51920;53.952;10.292;2023-06-26T07:39:16;100666.25;;;30.63
65316;BMP280;51920;53.952;10.292;2023-06-26T07:41:46;100660.34;;;30.99
65316;BMP280;51920;53.952;10.292;2023-06-26T07:44:13;100662.19;;;31.10
65316;BMP280;51920;53.952;10.292;2023-06-26T07:46:40;100657.63;;;31.39
65316;BMP280;51920;53.952;10.292;2023-06-26T07:49:07;100658.03;;;31.16
65316;BMP280;51920;53.952;10.292;2023-06-26T07:51:34;100641.69;;;31.47
65316;BMP280;51920;53.952;10.292;2023-06-26T07:54:00;100649.84;;;31.31
65316;BMP280;51920;53.952;10.292;2023-06-26T07:56:27;100634.78;;;31.61
65316;BMP280;51920;53.952;10.292;2023-06-26T07:58:54;100647.81;;;31.72
65316;BMP280;51920;53.952;10.292;2023-06-26T08:01:20;100634.13;;;31.68
65316;BMP280;51920;53.952;10.292;2023-06-26T08:03:47;100631.63;;;31.91
65316;BMP280;51920;53.952;10.292;2023-06-26T08:06:14;100630.53;;;32.07
65316;BMP280;51920;53.952;10.292;2023-06-26T08:08:41;100630.94;;;32.11
65316;BMP280;51920;53.952;10.292;2023-06-26T08:11:07;100631.53;;;31.97
65316;BMP280;51920;53.952;10.292;2023-06-26T08:13:34;100623.16;;;31.83
65316;BMP280;51920;53.952;10.292;2023-06-26T08:16:01;100635.47;;;32.01
65316;BMP280;51920;53.952;10.292;2023-06-26T08:18:27;100645.38;;;32.50
65316;BMP280;51920;53.952;10.292;2023-06-26T08:20:55;100636.06;;;32.76
65316;BMP280;51920;53.952;10.292;2023-06-26T08:23:21;100631.19;;;32.34
65316;BMP280;51920;53.952;10.292;2023-06-26T08:25:49;100623.41;;;32.41
65316;BMP280;51920;53.952;10.292;2023-06-26T08:28:16;100631.63;;;32.59
65316;BMP280;51920;53.952;10.292;2023-06-26T08:30:43;100638.06;;;32.33
65316;BMP280;51920;53.952;10.292;2023-06-26T08:33:10;100631.06;;;31.93
65316;BMP280;51920;53.952;10.292;2023-06-26T08:35:38;100630.78;;;31.83
65316;BMP280;51920;53.952;10.292;2023-06-26T08:38:05;100617.78;;;32.06
65316;BMP280;51920;53.952;10.292;2023-06-26T08:40:31;100625.47;;;32.40
65316;BMP280;51920;53.952;10.292;2023-06-26T08:42:58;100614.66;;;32.65
65316;BMP280;51920;53.952;10.292;2023-06-26T08:45:25;100609.31;;;32.54
65316;BMP280;51920;53.952;10.292;2023-06-26T08:47:55;100610.69;;;32.81
65316;BMP280;51920;53.952;10.292;2023-06-26T08:50:28;100606.28;;;32.94
65316;BMP280;51920;53.952;10.292;2023-06-26T08:55:31;100595.34;;;32.82
65316;BMP280;51920;53.952;10.292;2023-06-26T08:57:59;100590.53;;;32.91
65316;BMP280;51920;53.952;10.292;2023-06-26T09:00:26;100588.06;;;33.08
65316;BMP280;51920;53.952;10.292;2023-06-26T09:02:53;100595.97;;;33.17
65316;BMP280;51920;53.952;10.292;2023-06-26T09:05:20;100588.25;;;33.46
65316;BMP280;51920;53.952;10.292;2023-06-26T09:07:47;100591.75;;;33.75
65316;BMP280;51920;53.952;10.292;2023-06-26T09:10:13;100587.88;;;33.42
65316;BMP280;51920;53.952;10.292;2023-06-26T09:12:40;100598.78;;;33.17
65316;BMP280;51920;53.952;10.292;2023-06-26T09:15:07;100620.13;;;32.50
65316;BMP280;51920;53.952;10.292;2023-06-26T09:17:39;100633.59;;;31.83
65316;BMP280;51920;53.952;10.292;2023-06-26T09:20:09;100634.34;;;31.30
65316;BMP280;51920;53.952;10.292;2023-06-26T09:22:37;100648.84;;;30.83
65316;BMP280;51920;53.952;10.292;2023-06-26T09:25:07;100645.91;;;30.63
65316;BMP280;51920;53.952;10.292;2023-06-26T09:27:35;100646.66;;;30.63
65316;BMP280;51920;53.952;10.292;2023-06-26T09:30:03;100651.50;;;30.63
65316;BMP280;51920;53.952;10.292;2023-06-26T09:32:30;100647.28;;;30.88
65316;BMP280;51920;53.952;10.292;2023-06-26T09:34:57;100653.59;;;31.07
65316;BMP280;51920;53.952;10.292;2023-06-26T09:37:24;100650.78;;;31.07
65316;BMP280;51920;53.952;10.292;2023-06-26T09:39:51;100662.50;;;31.06
65316;BMP280;51920;53.952;10.292;2023-06-26T09:42:19;100668.19;;;30.68
65316;BMP280;51920;53.952;10.292;2023-06-26T09:44:47;100667.06;;;30.20
65316;BMP280;51920;53.952;10.292;2023-06-26T09:47:19;100667.91;;;30.34
65316;BMP280;51920;53.952;10.292;2023-06-26T09:49:46;100671.91;;;30.39
65316;BMP280;51920;53.952;10.292;2023-06-26T09:52:16;100669.22;;;30.09
65316;BMP280;51920;53.952;10.292;2023-06-26T09:54:45;100675.63;;;29.85
65316;BMP280;51920;53.952;10.292;2023-06-26T09:57:14;100689.22;;;29.45
65316;BMP280;51920;53.952;10.292;2023-06-26T09:59:42;100686.94;;;29.13
65316;BMP280;51920;53.952;10.292;2023-06-26T10:02:11;100705.19;;;28.73
65316;BMP280;51920;53.952;10.292;2023-06-26T10:04:38;100711.69;;;28.28
65316;BMP280;51920;53.952;10.292;2023-06-26T10:07:06;100721.09;;;28.20
65316;BMP280;51920;53.952;10.292;2023-06-26T10:09:37;100713.81;;;27.89
65316;BMP280;51920;53.952;10.292;2023-06-26T10:12:12;100718.63;;;27.60
65316;BMP280;51920;53.952;10.292;2023-06-26T10:14:42;100721.09;;;26.96
65316;BMP280;51920;53.952;10.292;2023-06-26T10:17:10;100743.28;;;26.31
65316;BMP280;51920;53.952;10.292;2023-06-26T10:19:38;100736.78;;;25.71
65316;BMP280;51920;53.952;10.292;2023-06-26T10:22:07;100745.75;;;24.93
65316;BMP280;51920;53.952;10.292;2023-06-26T10:24:35;100746.19;;;24.15
65316;BMP280;51920;53.952;10.292;2023-06-26T10:27:36;100760.13;;;23.91
65316;BMP280;51920;53.952;10.292;2023-06-26T10:30:06;100770.31;;;23.85
65316;BMP280;51920;53.952;10.292;2023-06-26T10:32:36;100778.72;;;23.76
65316;BMP280;51920;53.952;10.292;2023-06-26T10:35:05;100768.25;;;23.41
65316;BMP280;51920;53.952;10.292;2023-06-26T10:37:43;100753.22;;;23.42
65316;BMP280;51920;53.952;10.292;2023-06-26T10:40:11;100757.97;;;23.18
65316;BMP280;51920;53.952;10.292;2023-06-26T10:42:39;100752.56;;;23.24
65316;BMP280;51920;53.952;10.292;2023-06-26T10:45:16;100766.13;;;23.36
65316;BMP280;51920;53.952;10.292;2023-06-26T10:47:48;100777.19;;;23.36
65316;BMP280;51920;53.952;10.292;2023-06-26T10:50:27;100783.81;;;23.30
65316;BMP280;51920;53.952;10.292;2023-06-26T10:56:05;100787.03;;;22.80
65316;BMP280;51920;53.952;10.292;2023-06-26T11:03:38;100778.22;;;22.67
65316;BMP280;51920;53.952;10.292;2023-06-26T11:06:33;100784.00;;;22.36
65316;BMP280;51920;53.952;10.292;2023-06-26T11:14:25;100794.03;;;21.96
65316;BMP280;51920;53.952;10.292;2023-06-26T11:16:55;100803.53;;;21.95
65316;BMP280;51920;53.952;10.292;2023-06-26T11:19:25;100814.25;;;21.93
65316;BMP280;51920;53.952;10.292;2023-06-26T11:21:52;100820.06;;;22.05
65316;BMP280;51920;53.952;10.292;2023-06-26T11:24:24;100831.44;;;22.07
65316;BMP280;51920;53.952;10.292;2023-06-26T11:26:50;100830.81;;;21.84
65316;BMP280;51920;53.952;10.292;2023-06-26T11:29:27;100837.84;;;21.94
65316;BMP280;51920;53.952;10.292;2023-06-26T11:31:58;100829.75;;;22.00
65316;BMP280;51920;53.952;10.292;2023-06-26T11:34:30;100822.81;;;22.23
65316;BMP280;51920;53.952;10.292;2023-06-26T11:36:57;100830.44;;;22.37
65316;BMP280;51920;53.952;10.292;2023-06-26T11:39:24;100830.56;;;22.61
65316;BMP280;51920;53.952;10.292;2023-06-26T11:44:18;100837.13;;;22.64
65316;BMP280;51920;53.952;10.292;2023-06-26T11:46:46;100838.34;;;22.72
65316;BMP280;51920;53.952;10.292;2023-06-26T11:49:16;100832.56;;;22.94
65316;BMP280;51920;53.952;10.292;2023-06-26T11:51:42;100836.69;;;22.99
65316;BMP280;51920;53.952;10.292;2023-06-26T11:54:09;100842.88;;;23.41
65316;BMP280;51920;53.952;10.292;2023-06-26T11:56:36;100847.47;;;23.68
65316;BMP280;51920;53.952;10.292;2023-06-26T11:59:07;100855.28;;;23.70
65316;BMP280;51920;53.952;10.292;2023-06-26T12:01:42;100859.13;;;23.49
65316;BMP280;51920;53.952;10.292;2023-06-26T12:04:14;100861.75;;;23.28
65316;BMP280;51920;53.952;10.292;2023-06-26T12:06:46;100859.03;;;23.10
65316;BMP280;51920;53.952;10.292;2023-06-26T12:09:13;100869.50;;;23.39
65316;BMP280;51920;53.952;10.292;2023-06-26T12:11:43;100867.06;;;23.56
65316;BMP280;51920;53.952;10.292;2023-06-26T12:14:10;100865.41;;;23.73
65316;BMP280;51920;53.952;10.292;2023-06-26T12:16:38;100871.19;;;23.99
65316;BMP280;51920;53.952;10.292;2023-06-26T12:19:07;100880.78;;;24.28
65316;BMP280;51920;53.952;10.292;2023-06-26T12:24:04;100887.84;;;24.29
65316;BMP280;51920;53.952;10.292;2023-06-26T12:26:31;100877.69;;;24.11
65316;BMP280;51920;53.952;10.292;2023-06-26T12:29:04;100889.72;;;24.08
65316;BMP280;51920;53.952;10.292;2023-06-26T12:31:32;100894.09;;;24.14
65316;BMP280;51920;53.952;10.292;2023-06-26T12:33:59;100899.03;;;24.34
65316;BMP280;51920;53.952;10.292;2023-06-26T12:36:26;100898.66;;;24.03
65316;BMP280;51920;53.952;10.292;2023-06-26T12:38:54;100893.88;;;23.88
65316;BMP280;51920;53.952;10.292;2023-06-26T12:41:24;100894.19;;;24.05
65316;BMP280;51920;53.952;10.292;2023-06-26T12:43:55;100897.38;;;24.28
65316;BMP280;51920;53.952;10.292;2023-06-26T12:46:33;100917.34;;;24.17
65316;BMP280;51920;53.952;10.292;2023-06-26T12:49:01;100905.69;;;24.28
65316;BMP280;51920;53.952;10.292;2023-06-26T12:51:30;100909.91;;;24.38
65316;BMP280;51920;53.952;10.292;2023-06-26T12:53:57;100908.25;;;24.17
65316;BMP280;51920;53.952;10.292;2023-06-26T12:56:23;100914.19;;;24.24
65316;BMP280;51920;53.952;10.292;2023-06-26T12:58:50;100913.50;;;24.29
65316;BMP280;51920;53.952;10.292;2023-06-26T13:01:17;100922.00;;;24.26
65316;BMP280;51920;53.952;10.292;2023-06-26T13:03:49;100921.44;;;24.36
65316;BMP280;51920;53.952;10.292;2023-06-26T13:06:15;100924.28;;;24.57
65316;BMP280;51920;53.952;10.292;2023-06-26T13:08:42;100938.63;;;24.85
65316;BMP280;51920;53.952;10.292;2023-06-26T13:11:10;100925.25;;;24.83
65316;BMP280;51920;53.952;10.292;2023-06-26T13:13:37;100933.84;;;24.85
65316;BMP280;51920;53.952;10.292;2023-06-26T13:16:03;100928.81;;;24.84
65316;BMP280;51920;53.952;10.292;2023-06-26T13:18:31;100929.25;;;24.82
65316;BMP280;51920;53.952;10.292;2023-06-26T13:20:58;100931.47;;;24.78
65316;BMP280;51920;53.952;10.292;2023-06-26T13:23:24;100937.78;;;24.79
65316;BMP280;51920;53.952;10.292;2023-06-26T13:25:51;100942.34;;;24.82
65316;BMP280;51920;53.952;10.292;2023-06-26T13:28:18;100927.56;;;24.55
65316;BMP280;51920;53.952;10.292;2023-06-26T13:30:44;100935.28;;;24.36
65316;BMP280;51920;53.952;10.292;2023-06-26T13:33:11;100938.44;;;24.29
65316;BMP280;51920;53.952;10.292;2023-06-26T13:35:38;100945.38;;;24.25
65316;BMP280;51920;53.952;10.292;2023-06-26T13:38:04;100946.47;;;24.27
65316;BMP280;51920;53.952;10.292;2023-06-26T13:40:31;100942.88;;;24.12
65316;BMP280;51920;53.952;10.292;2023-06-26T13:42:58;100926.66;;;23.81
65316;BMP280;51920;53.952;10.292;2023-06-26T13:45:26;100937.66;;;24.29
65316;BMP280;51920;53.952;10.292;2023-06-26T13:47:56;100936.16;;;24.43
65316;BMP280;51920;53.952;10.292;2023-06-26T13:50:23;100924.31;;;24.27
65316;BMP280;51920;53.952;10.292;2023-06-26T13:52:50;100934.31;;;24.25
65316;BMP280;51920;53.952;10.292;2023-06-26T13:55:17;100933.56;;;24.24
65316;BMP280;51920;53.952;10.292;2023-06-26T13:57:45;100940.97;;;24.18
65316;BMP280;51920;53.952;10.292;2023-06-26T14:00:12;100947.78;;;24.17
65316;BMP280;51920;53.952;10.292;2023-06-26T14:02:39;100942.59;;;24.25
65316;BMP280;51920;53.952;10.292;2023-06-26T14:05:06;100947.69;;;24.26
65316;BMP280;51920;53.952;10.292;2023-06-26T14:07:32;100949.31;;;24.33
65316;BMP280;51920;53.952;10.292;2023-06-26T14:09:59;100939.75;;;24.19
65316;BMP280;51920;53.952;10.292;2023-06-26T14:12:26;100944.53;;;24.33
65316;BMP280;51920;53.952;10.292;2023-06-26T14:14:52;100949.13;;;24.51
65316;BMP280;51920;53.952;10.292;2023-06-26T14:17:19;100942.56;;;24.49
65316;BMP280;51920;53.952;10.292;2023-06-26T14:19:45;100944.63;;;24.39